Αναφορές Αεροδρομίων

 

KSJC - San Jose, California, USA
Distance from station: ΒΑ 14km
Ενημερώθηκε: 15/04/2021 03:53
Few Clouds
Few Clouds
 Ανεμος από ΒΒΔ
Ανεμος: ΒΒΔ 24 km/h
Θερμοκρασία: 18°C
Σημείο Δρόσου: 7°C
Υγρασία: 49%
Βαρόμετρο: 1014.2 hPa
Clouds: Few Clouds
Visibility: 16 km
Cloud details: Few Clouds 1280 m
Few Clouds 4267 m
2021/04/15 00:53 KSJC 150053Z 34013KT 10SM FEW042 FEW140 18/07 A2995 RMK AO2 SLP140 T01830072
KNUQ - Moffett Nas/Mtn, California, USA
Distance from station: Β 14km
Ενημερώθηκε: 14/04/2021 01:40
NOT Current

 
2021/04/13 22:40 KNUQ 132240Z AUTO RMK AO2 PNO PWINO TSNO
 
KPAO - Palo Alto, California, USA
Distance from station: ΒΒΔ 23km
Ενημερώθηκε: 15/04/2021 03:47
Few Clouds
Few Clouds
 Ανεμος από Β
Ανεμος: Β 28 km/h
Θερμοκρασία: 17°C
Σημείο Δρόσου: 10°C
Υγρασία: 64%
Βαρόμετρο: 1014.2 hPa
Clouds: Few Clouds
Visibility: 16 km
Cloud details: Few Clouds 1524 m
2021/04/15 00:47 KPAO 150047Z 36015KT 10SM FEW050 17/10 A2995
KRHV - San Jose/Reid, California, USA
Distance from station: ΑΒΑ 19km
Ενημερώθηκε: 15/04/2021 03:47
Αίθριος
Αίθριος
 Ανεμος από ΒΒΔ
Ανεμος: ΒΒΔ 17 km/h, Ριπή: 33 km/h
Θερμοκρασία: 20°C
Σημείο Δρόσου: 2°C
Υγρασία: 30%
Βαρόμετρο: 1013.9 hPa
Clouds: Αίθριος
Visibility: 16 km
2021/04/15 00:47 KRHV 150047Z 33009G18KT 10SM SKC 20/02 A2994
 
KOAK - Oakland, California, USA
Distance from station: ΒΒΔ 50km
Ενημερώθηκε: 15/04/2021 03:53
Few Clouds
Few Clouds
 Ανεμος από ΔΒΔ
Ανεμος: ΔΒΔ 22 km/h
Θερμοκρασία: 16°C
Σημείο Δρόσου: 7°C
Υγρασία: 55%
Βαρόμετρο: 1015.2 hPa
Clouds: Few Clouds
Visibility: 14 km
Cloud details: Few Clouds 914 m
Few Clouds 7620 m
2021/04/15 00:53 KOAK 150053Z 30012KT 9SM FEW030 FEW250 16/07 A2998 RMK AO2 SLP150 T01560067
KSQL - San Carlos Airpo, California, USA
Distance from station: ΒΔ 34km
Ενημερώθηκε: 15/04/2021 03:56
Αίθριος
Αίθριος
 Ανεμος από Δ
Ανεμος: Δ 20 km/h, Ριπή: 28 km/h
Θερμοκρασία: 17°C
Σημείο Δρόσου: 7°C
Υγρασία: 52%
Βαρόμετρο: 1014.9 hPa
Clouds: Αίθριος
Visibility: 16 km
2021/04/15 00:56 KSQL 150056Z 28011G15KT 10SM SKC 17/07 A2997
 
KSFO - San Francisco, California, USA
Distance from station: ΒΔ 49km
Ενημερώθηκε: 15/04/2021 03:56
Few Clouds
Few Clouds
 Ανεμος από ΔΒΔ
Ανεμος: ΔΒΔ 30 km/h
Θερμοκρασία: 18°C
Σημείο Δρόσου: 6°C
Υγρασία: 46%
Βαρόμετρο: 1014.6 hPa
Clouds: Few Clouds
Visibility: 16 km
Cloud details: Few Clouds 1006 m
Few Clouds 6096 m
2021/04/15 00:56 KSFO 150056Z 29016KT 10SM FEW033 FEW200 18/06 A2996 RMK AO2 SLP146 T01780061
KE16 - San Martin, California, USA
Distance from station: ΑΝΑ 43km
Ενημερώθηκε: 15/04/2021 04:15
Αίθριος
Αίθριος
 Ανεμος από ΝΔ
Ανεμος: ΝΔ 13 km/h
Θερμοκρασία: 17°C
Σημείο Δρόσου: 7°C
Υγρασία: 52%
Βαρόμετρο: 1014.6 hPa
Clouds: Αίθριος
Visibility: 16 km
2021/04/15 01:15 KE16 150115Z AUTO 22007KT 10SM CLR 17/07 A2996 RMK AO2 PWINO PNO
 
KWVI - Watsonville, California, USA
Distance from station: ΝΝΑ 44km
Ενημερώθηκε: 15/04/2021 03:53
Αίθριος
Αίθριος
 Ανεμος από Δ
Ανεμος: Δ 15 km/h
Θερμοκρασία: 13°C
Σημείο Δρόσου: 8°C
Υγρασία: 72%
Βαρόμετρο: 1015.9 hPa
Clouds: Αίθριος
Visibility: 16 km
2021/04/15 00:53 KWVI 150053Z AUTO 26008KT 10SM CLR 13/08 A3000 RMK AO2 SLP158 T01280078
KHAF - Half Moon Bay, California, USA
Distance from station: ΔΒΔ 50km
Ενημερώθηκε: 15/04/2021 04:35
Haze, Αίθριος
Haze, Αίθριος
 Ανεμος από ΝΝΔ
Ανεμος: ΝΝΔ 7 km/h
Θερμοκρασία: 12°C
Σημείο Δρόσου: 8°C
Υγρασία: 77%
Βαρόμετρο: 1016.3 hPa
Περίληψη: Haze
Clouds: Αίθριος
Visibility: 5 km
2021/04/15 01:35 KHAF 150135Z AUTO 20004KT 3SM HZ CLR 12/08 A3001 RMK AO2
 
KHWD - Hayward, California, USA
Distance from station: Β 44km
Ενημερώθηκε: 15/04/2021 03:54
Αίθριος
Αίθριος
 Ανεμος από ΒΔ
Ανεμος: ΒΔ 24 km/h
Θερμοκρασία: 16°C
Σημείο Δρόσου: 7°C
Υγρασία: 55%
Βαρόμετρο: 1014.6 hPa
Clouds: Αίθριος
Visibility: 16 km
2021/04/15 00:54 KHWD 150054Z 31013KT 10SM CLR 16/07 A2996 RMK AO2 SLP156 T01560067
KLVK - Livermore, California, USA
Distance from station: ΒΒΑ 51km
Ενημερώθηκε: 15/04/2021 03:53
Αίθριος
Αίθριος
 Ανεμος από ΔΒΔ
Ανεμος: ΔΒΔ 26 km/h
Θερμοκρασία: 18°C
Σημείο Δρόσου: 2°C
Υγρασία: 34%
Βαρόμετρο: 1013.9 hPa
Clouds: Αίθριος
Visibility: 16 km
2021/04/15 00:53 KLVK 150053Z 29014KT 10SM CLR 18/02 A2994 RMK AO2 SLP135 T01830022